sensor_id;sensor_type;location;lat;lon;timestamp;temperature;humidity
28767;DHT22;15921;52.034;20.650;2023-01-24T00:00:39;3.20;99.90
28767;DHT22;15921;52.034;20.650;2023-01-24T00:03:05;3.20;99.90
28767;DHT22;15921;52.034;20.650;2023-01-24T00:05:37;3.20;99.90
28767;DHT22;15921;52.034;20.650;2023-01-24T00:08:03;3.10;99.90
28767;DHT22;15921;52.034;20.650;2023-01-24T00:10:29;3.00;99.90
28767;DHT22;15921;52.034;20.650;2023-01-24T00:12:56;3.00;99.90
28767;DHT22;15921;52.034;20.650;2023-01-24T00:15:21;3.00;99.90
28767;DHT22;15921;52.034;20.650;2023-01-24T00:17:47;3.00;99.90
28767;DHT22;15921;52.034;20.650;2023-01-24T00:20:13;3.00;99.90
28767;DHT22;15921;52.034;20.650;2023-01-24T00:22:38;3.00;99.90
28767;DHT22;15921;52.034;20.650;2023-01-24T00:25:04;3.10;99.90
28767;DHT22;15921;52.034;20.650;2023-01-24T00:27:30;3.10;99.90
28767;DHT22;15921;52.034;20.650;2023-01-24T00:29:57;3.10;99.90
28767;DHT22;15921;52.034;20.650;2023-01-24T00:32:23;3.10;99.90
28767;DHT22;15921;52.034;20.650;2023-01-24T00:34:48;3.10;99.90
28767;DHT22;15921;52.034;20.650;2023-01-24T00:37:14;3.10;99.90
28767;DHT22;15921;52.034;20.650;2023-01-24T00:39:39;3.10;99.90
28767;DHT22;15921;52.034;20.650;2023-01-24T00:42:05;3.10;99.90
28767;DHT22;15921;52.034;20.650;2023-01-24T00:44:31;3.20;99.90
28767;DHT22;15921;52.034;20.650;2023-01-24T00:46:56;3.20;99.90
28767;DHT22;15921;52.034;20.650;2023-01-24T00:49:22;3.20;99.90
28767;DHT22;15921;52.034;20.650;2023-01-24T00:51:48;3.30;99.90
28767;DHT22;15921;52.034;20.650;2023-01-24T00:54:13;3.30;99.90
28767;DHT22;15921;52.034;20.650;2023-01-24T00:56:39;3.30;99.90
28767;DHT22;15921;52.034;20.650;2023-01-24T00:59:05;3.30;99.90
28767;DHT22;15921;52.034;20.650;2023-01-24T01:01:30;3.20;99.90
28767;DHT22;15921;52.034;20.650;2023-01-24T01:03:56;3.20;99.90
28767;DHT22;15921;52.034;20.650;2023-01-24T01:06:24;3.20;99.90
28767;DHT22;15921;52.034;20.650;2023-01-24T01:08:50;3.20;99.90
28767;DHT22;15921;52.034;20.650;2023-01-24T01:11:16;3.20;99.90
28767;DHT22;15921;52.034;20.650;2023-01-24T01:13:43;3.10;99.90
28767;DHT22;15921;52.034;20.650;2023-01-24T01:16:12;3.10;99.90
28767;DHT22;15921;52.034;20.650;2023-01-24T01:18:39;3.00;99.90
28767;DHT22;15921;52.034;20.650;2023-01-24T01:21:05;3.00;99.90
28767;DHT22;15921;52.034;20.650;2023-01-24T01:23:31;2.90;99.90
28767;DHT22;15921;52.034;20.650;2023-01-24T01:26:02;3.00;99.90
28767;DHT22;15921;52.034;20.650;2023-01-24T01:28:28;3.10;99.90
28767;DHT22;15921;52.034;20.650;2023-01-24T01:30:54;3.10;99.90
28767;DHT22;15921;52.034;20.650;2023-01-24T01:33:20;3.10;99.90
28767;DHT22;15921;52.034;20.650;2023-01-24T01:35:50;3.10;99.90
28767;DHT22;15921;52.034;20.650;2023-01-24T01:38:16;3.20;99.90
28767;DHT22;15921;52.034;20.650;2023-01-24T01:40:42;3.20;99.90
28767;DHT22;15921;52.034;20.650;2023-01-24T01:43:17;3.30;99.90
28767;DHT22;15921;52.034;20.650;2023-01-24T01:45:44;3.20;99.90
28767;DHT22;15921;52.034;20.650;2023-01-24T01:53:33;3.20;99.90
28767;DHT22;15921;52.034;20.650;2023-01-24T01:58:50;3.20;99.90
28767;DHT22;15921;52.034;20.650;2023-01-24T02:01:16;3.20;99.90
28767;DHT22;15921;52.034;20.650;2023-01-24T02:03:48;3.20;99.90
28767;DHT22;15921;52.034;20.650;2023-01-24T02:06:51;3.30;99.90
28767;DHT22;15921;52.034;20.650;2023-01-24T02:09:21;3.20;99.90
28767;DHT22;15921;52.034;20.650;2023-01-24T02:11:48;3.20;99.90
28767;DHT22;15921;52.034;20.650;2023-01-24T02:14:17;3.20;99.90
28767;DHT22;15921;52.034;20.650;2023-01-24T02:17:04;3.20;99.90
28767;DHT22;15921;52.034;20.650;2023-01-24T02:22:47;3.20;99.90
28767;DHT22;15921;52.034;20.650;2023-01-24T02:25:32;3.20;99.90
28767;DHT22;15921;52.034;20.650;2023-01-24T02:28:02;3.10;99.90
28767;DHT22;15921;52.034;20.650;2023-01-24T02:30:28;3.10;99.90
28767;DHT22;15921;52.034;20.650;2023-01-24T02:32:54;3.10;99.90
28767;DHT22;15921;52.034;20.650;2023-01-24T02:35:32;3.10;99.90
28767;DHT22;15921;52.034;20.650;2023-01-24T02:38:04;3.20;99.90
28767;DHT22;15921;52.034;20.650;2023-01-24T02:40:30;3.20;99.90
28767;DHT22;15921;52.034;20.650;2023-01-24T02:42:59;3.10;99.90
28767;DHT22;15921;52.034;20.650;2023-01-24T02:45:30;3.20;99.90
28767;DHT22;15921;52.034;20.650;2023-01-24T02:47:57;3.20;99.90
28767;DHT22;15921;52.034;20.650;2023-01-24T02:50:26;3.20;99.90
28767;DHT22;15921;52.034;20.650;2023-01-24T02:52:52;3.20;99.90
28767;DHT22;15921;52.034;20.650;2023-01-24T02:55:37;3.20;99.90
28767;DHT22;15921;52.034;20.650;2023-01-24T02:58:41;3.20;99.90
28767;DHT22;15921;52.034;20.650;2023-01-24T03:01:07;3.10;99.90
28767;DHT22;15921;52.034;20.650;2023-01-24T03:03:33;3.10;99.90
28767;DHT22;15921;52.034;20.650;2023-01-24T03:05:58;3.00;99.90
28767;DHT22;15921;52.034;20.650;2023-01-24T03:08:29;3.00;99.90
28767;DHT22;15921;52.034;20.650;2023-01-24T03:10:55;3.10;99.90
28767;DHT22;15921;52.034;20.650;2023-01-24T03:13:22;3.10;99.90
28767;DHT22;15921;52.034;20.650;2023-01-24T03:16:07;3.10;99.90
28767;DHT22;15921;52.034;20.650;2023-01-24T03:18:51;3.10;99.90
28767;DHT22;15921;52.034;20.650;2023-01-24T03:21:36;3.10;99.90
28767;DHT22;15921;52.034;20.650;2023-01-24T03:24:21;3.10;99.90
28767;DHT22;15921;52.034;20.650;2023-01-24T03:27:06;3.00;99.90
28767;DHT22;15921;52.034;20.650;2023-01-24T03:29:50;3.10;99.90
28767;DHT22;15921;52.034;20.650;2023-01-24T03:32:35;3.10;99.90
28767;DHT22;15921;52.034;20.650;2023-01-24T03:35:19;3.10;99.90
28767;DHT22;15921;52.034;20.650;2023-01-24T03:37:45;3.00;99.90
28767;DHT22;15921;52.034;20.650;2023-01-24T03:40:29;3.00;99.90
28767;DHT22;15921;52.034;20.650;2023-01-24T03:42:55;3.10;99.90
28767;DHT22;15921;52.034;20.650;2023-01-24T03:45:23;3.00;99.90
28767;DHT22;15921;52.034;20.650;2023-01-24T03:47:58;3.10;99.90
28767;DHT22;15921;52.034;20.650;2023-01-24T03:50:26;3.10;99.90
28767;DHT22;15921;52.034;20.650;2023-01-24T03:53:12;3.10;99.90
28767;DHT22;15921;52.034;20.650;2023-01-24T03:55:38;3.10;99.90
28767;DHT22;15921;52.034;20.650;2023-01-24T03:58:05;3.10;99.90
28767;DHT22;15921;52.034;20.650;2023-01-24T04:00:31;3.20;99.90
28767;DHT22;15921;52.034;20.650;2023-01-24T04:02:57;3.20;99.90
28767;DHT22;15921;52.034;20.650;2023-01-24T04:05:23;3.10;99.90
28767;DHT22;15921;52.034;20.650;2023-01-24T04:07:49;3.20;99.90
28767;DHT22;15921;52.034;20.650;2023-01-24T04:10:15;3.20;99.90
28767;DHT22;15921;52.034;20.650;2023-01-24T04:12:42;3.10;99.90
28767;DHT22;15921;52.034;20.650;2023-01-24T04:15:09;3.10;99.90
28767;DHT22;15921;52.034;20.650;2023-01-24T04:17:37;3.10;99.90
28767;DHT22;15921;52.034;20.650;2023-01-24T04:20:03;3.10;99.90
28767;DHT22;15921;52.034;20.650;2023-01-24T04:22:29;3.10;99.90
28767;DHT22;15921;52.034;20.650;2023-01-24T04:24:54;3.10;99.90
28767;DHT22;15921;52.034;20.650;2023-01-24T04:27:20;3.10;99.90
28767;DHT22;15921;52.034;20.650;2023-01-24T04:29:46;3.20;99.90
28767;DHT22;15921;52.034;20.650;2023-01-24T04:32:11;3.20;99.90
28767;DHT22;15921;52.034;20.650;2023-01-24T04:34:37;3.20;99.90
28767;DHT22;15921;52.034;20.650;2023-01-24T04:37:03;3.20;99.90
28767;DHT22;15921;52.034;20.650;2023-01-24T04:39:29;3.20;99.90
28767;DHT22;15921;52.034;20.650;2023-01-24T04:41:54;3.20;99.90
28767;DHT22;15921;52.034;20.650;2023-01-24T04:44:20;3.20;99.90
28767;DHT22;15921;52.034;20.650;2023-01-24T04:46:45;3.30;99.90
28767;DHT22;15921;52.034;20.650;2023-01-24T04:49:12;3.20;99.90
28767;DHT22;15921;52.034;20.650;2023-01-24T04:51:37;3.20;99.90
28767;DHT22;15921;52.034;20.650;2023-01-24T04:54:07;3.20;99.90
28767;DHT22;15921;52.034;20.650;2023-01-24T04:56:33;3.30;99.90
28767;DHT22;15921;52.034;20.650;2023-01-24T04:58:59;3.30;99.90
28767;DHT22;15921;52.034;20.650;2023-01-24T05:01:24;3.30;99.90
28767;DHT22;15921;52.034;20.650;2023-01-24T05:03:50;3.30;99.90
28767;DHT22;15921;52.034;20.650;2023-01-24T05:06:16;3.30;99.90
28767;DHT22;15921;52.034;20.650;2023-01-24T05:08:41;3.40;99.90
28767;DHT22;15921;52.034;20.650;2023-01-24T05:11:07;3.40;99.90
28767;DHT22;15921;52.034;20.650;2023-01-24T05:13:33;3.40;99.90
28767;DHT22;15921;52.034;20.650;2023-01-24T05:15:59;3.40;99.90
28767;DHT22;15921;52.034;20.650;2023-01-24T05:18:24;3.40;99.90
28767;DHT22;15921;52.034;20.650;2023-01-24T05:20:50;3.30;99.90
28767;DHT22;15921;52.034;20.650;2023-01-24T05:23:16;3.20;99.90
28767;DHT22;15921;52.034;20.650;2023-01-24T05:25:42;3.20;99.90
28767;DHT22;15921;52.034;20.650;2023-01-24T05:28:08;3.20;99.90
28767;DHT22;15921;52.034;20.650;2023-01-24T05:30:33;3.20;99.90
28767;DHT22;15921;52.034;20.650;2023-01-24T05:32:59;3.20;99.90
28767;DHT22;15921;52.034;20.650;2023-01-24T05:35:24;3.20;99.90
28767;DHT22;15921;52.034;20.650;2023-01-24T05:37:50;3.30;99.90
28767;DHT22;15921;52.034;20.650;2023-01-24T05:40:16;3.20;99.90
28767;DHT22;15921;52.034;20.650;2023-01-24T05:42:42;3.20;99.90
28767;DHT22;15921;52.034;20.650;2023-01-24T05:45:09;3.30;99.90
28767;DHT22;15921;52.034;20.650;2023-01-24T05:47:35;3.30;99.90
28767;DHT22;15921;52.034;20.650;2023-01-24T05:50:01;3.30;99.90
28767;DHT22;15921;52.034;20.650;2023-01-24T05:52:27;3.40;99.90
28767;DHT22;15921;52.034;20.650;2023-01-24T05:54:53;3.40;99.90
28767;DHT22;15921;52.034;20.650;2023-01-24T05:57:19;3.50;99.90
28767;DHT22;15921;52.034;20.650;2023-01-24T05:59:44;3.50;99.90
28767;DHT22;15921;52.034;20.650;2023-01-24T06:02:10;3.40;99.90
28767;DHT22;15921;52.034;20.650;2023-01-24T06:04:36;3.40;99.90
28767;DHT22;15921;52.034;20.650;2023-01-24T06:07:02;3.40;99.90
28767;DHT22;15921;52.034;20.650;2023-01-24T06:09:28;3.30;99.90
28767;DHT22;15921;52.034;20.650;2023-01-24T06:11:53;3.30;99.90
28767;DHT22;15921;52.034;20.650;2023-01-24T06:14:19;3.30;99.90
28767;DHT22;15921;52.034;20.650;2023-01-24T06:16:46;3.40;99.90
28767;DHT22;15921;52.034;20.650;2023-01-24T06:19:12;3.40;99.90
28767;DHT22;15921;52.034;20.650;2023-01-24T06:22:42;3.40;99.90
28767;DHT22;15921;52.034;20.650;2023-01-24T06:24:33;3.50;99.90
28767;DHT22;15921;52.034;20.650;2023-01-24T06:26:59;3.50;99.90
28767;DHT22;15921;52.034;20.650;2023-01-24T06:29:25;3.60;99.90
28767;DHT22;15921;52.034;20.650;2023-01-24T06:37:44;3.50;99.90
28767;DHT22;15921;52.034;20.650;2023-01-24T06:40:12;3.40;99.90
28767;DHT22;15921;52.034;20.650;2023-01-24T06:42:38;3.40;99.90
28767;DHT22;15921;52.034;20.650;2023-01-24T06:45:05;3.40;99.90
28767;DHT22;15921;52.034;20.650;2023-01-24T06:47:31;3.40;99.90
28767;DHT22;15921;52.034;20.650;2023-01-24T06:49:56;3.50;99.90
28767;DHT22;15921;52.034;20.650;2023-01-24T06:52:22;3.50;99.90
28767;DHT22;15921;52.034;20.650;2023-01-24T06:54:48;3.60;99.90
28767;DHT22;15921;52.034;20.650;2023-01-24T06:57:13;3.60;99.90
28767;DHT22;15921;52.034;20.650;2023-01-24T06:59:39;3.60;99.90
28767;DHT22;15921;52.034;20.650;2023-01-24T07:02:05;3.60;99.90
28767;DHT22;15921;52.034;20.650;2023-01-24T07:04:31;3.50;99.90
28767;DHT22;15921;52.034;20.650;2023-01-24T07:06:57;3.50;99.90
28767;DHT22;15921;52.034;20.650;2023-01-24T07:09:23;3.50;99.90
28767;DHT22;15921;52.034;20.650;2023-01-24T07:11:49;3.60;99.90
28767;DHT22;15921;52.034;20.650;2023-01-24T07:14:19;3.60;99.90
28767;DHT22;15921;52.034;20.650;2023-01-24T07:16:44;3.60;99.90
28767;DHT22;15921;52.034;20.650;2023-01-24T07:19:16;3.70;99.90
28767;DHT22;15921;52.034;20.650;2023-01-24T07:21:42;3.70;99.90
28767;DHT22;15921;52.034;20.650;2023-01-24T07:24:13;3.70;99.90
28767;DHT22;15921;52.034;20.650;2023-01-24T07:26:39;3.60;99.90
28767;DHT22;15921;52.034;20.650;2023-01-24T07:29:05;3.60;99.90
28767;DHT22;15921;52.034;20.650;2023-01-24T07:31:30;3.60;99.90
28767;DHT22;15921;52.034;20.650;2023-01-24T07:33:56;3.70;99.90
28767;DHT22;15921;52.034;20.650;2023-01-24T07:36:22;3.70;99.90
28767;DHT22;15921;52.034;20.650;2023-01-24T07:38:47;3.80;99.90
28767;DHT22;15921;52.034;20.650;2023-01-24T07:41:13;3.80;99.90
28767;DHT22;15921;52.034;20.650;2023-01-24T07:43:39;3.80;99.90
28767;DHT22;15921;52.034;20.650;2023-01-24T07:46:05;3.80;99.90
28767;DHT22;15921;52.034;20.650;2023-01-24T07:48:30;3.70;99.90
28767;DHT22;15921;52.034;20.650;2023-01-24T07:51:00;3.70;99.90
28767;DHT22;15921;52.034;20.650;2023-01-24T07:53:26;3.70;99.90
28767;DHT22;15921;52.034;20.650;2023-01-24T07:55:52;3.60;99.90
28767;DHT22;15921;52.034;20.650;2023-01-24T07:58:17;3.70;99.90
28767;DHT22;15921;52.034;20.650;2023-01-24T08:00:43;3.80;99.90
28767;DHT22;15921;52.034;20.650;2023-01-24T08:03:10;3.90;99.90
28767;DHT22;15921;52.034;20.650;2023-01-24T08:05:38;4.00;99.90
28767;DHT22;15921;52.034;20.650;2023-01-24T08:08:04;4.00;99.90
28767;DHT22;15921;52.034;20.650;2023-01-24T08:10:30;4.00;99.90
28767;DHT22;15921;52.034;20.650;2023-01-24T08:12:56;4.00;99.90
28767;DHT22;15921;52.034;20.650;2023-01-24T08:15:22;4.10;99.90
28767;DHT22;15921;52.034;20.650;2023-01-24T08:17:48;4.20;99.90
28767;DHT22;15921;52.034;20.650;2023-01-24T08:20:14;4.20;99.90
28767;DHT22;15921;52.034;20.650;2023-01-24T08:22:40;4.30;99.90
28767;DHT22;15921;52.034;20.650;2023-01-24T08:25:07;4.30;99.90
28767;DHT22;15921;52.034;20.650;2023-01-24T08:27:32;4.30;99.90
28767;DHT22;15921;52.034;20.650;2023-01-24T08:29:58;4.30;99.90
28767;DHT22;15921;52.034;20.650;2023-01-24T08:32:24;4.30;99.90
28767;DHT22;15921;52.034;20.650;2023-01-24T08:34:50;4.40;99.90
28767;DHT22;15921;52.034;20.650;2023-01-24T08:37:16;4.50;99.90
28767;DHT22;15921;52.034;20.650;2023-01-24T08:39:41;4.60;99.90
28767;DHT22;15921;52.034;20.650;2023-01-24T08:42:07;4.70;99.90
28767;DHT22;15921;52.034;20.650;2023-01-24T08:44:34;4.70;99.90
28767;DHT22;15921;52.034;20.650;2023-01-24T08:46:59;4.80;99.90
28767;DHT22;15921;52.034;20.650;2023-01-24T08:49:25;4.90;99.90
28767;DHT22;15921;52.034;20.650;2023-01-24T08:51:51;5.00;99.90
28767;DHT22;15921;52.034;20.650;2023-01-24T08:54:27;5.00;99.90
28767;DHT22;15921;52.034;20.650;2023-01-24T08:56:53;5.10;99.90
28767;DHT22;15921;52.034;20.650;2023-01-24T08:59:19;5.20;99.90
28767;DHT22;15921;52.034;20.650;2023-01-24T09:01:45;5.30;99.90
28767;DHT22;15921;52.034;20.650;2023-01-24T09:04:11;5.30;99.90
28767;DHT22;15921;52.034;20.650;2023-01-24T09:06:37;5.30;99.90
28767;DHT22;15921;52.034;20.650;2023-01-24T09:09:03;5.30;99.90
28767;DHT22;15921;52.034;20.650;2023-01-24T09:11:30;5.40;99.90
28767;DHT22;15921;52.034;20.650;2023-01-24T09:13:56;5.40;99.90
28767;DHT22;15921;52.034;20.650;2023-01-24T09:16:22;5.40;99.90
28767;DHT22;15921;52.034;20.650;2023-01-24T09:18:47;5.40;99.90
28767;DHT22;15921;52.034;20.650;2023-01-24T09:21:17;5.40;99.90
28767;DHT22;15921;52.034;20.650;2023-01-24T09:23:43;5.40;99.90
28767;DHT22;15921;52.034;20.650;2023-01-24T09:26:08;5.40;99.90
28767;DHT22;15921;52.034;20.650;2023-01-24T09:28:34;5.40;99.90
28767;DHT22;15921;52.034;20.650;2023-01-24T09:31:00;5.50;99.90
28767;DHT22;15921;52.034;20.650;2023-01-24T09:33:26;5.50;99.90
28767;DHT22;15921;52.034;20.650;2023-01-24T09:35:57;5.60;99.90
28767;DHT22;15921;52.034;20.650;2023-01-24T09:38:24;5.60;99.90
28767;DHT22;15921;52.034;20.650;2023-01-24T09:43:36;5.50;99.90
28767;DHT22;15921;52.034;20.650;2023-01-24T09:48:46;5.50;99.90
28767;DHT22;15921;52.034;20.650;2023-01-24T09:51:17;5.60;99.90
28767;DHT22;15921;52.034;20.650;2023-01-24T09:53:47;5.80;99.90
28767;DHT22;15921;52.034;20.650;2023-01-24T09:56:40;5.90;99.90
28767;DHT22;15921;52.034;20.650;2023-01-24T09:59:23;5.80;99.90
28767;DHT22;15921;52.034;20.650;2023-01-24T10:01:51;5.70;99.90
28767;DHT22;15921;52.034;20.650;2023-01-24T10:09:41;5.60;99.90
28767;DHT22;15921;52.034;20.650;2023-01-24T10:15:00;5.40;99.90
28767;DHT22;15921;52.034;20.650;2023-01-24T10:25:57;5.10;99.90
28767;DHT22;15921;52.034;20.650;2023-01-24T10:28:34;5.00;99.90
28767;DHT22;15921;52.034;20.650;2023-01-24T10:31:17;5.00;99.90
28767;DHT22;15921;52.034;20.650;2023-01-24T10:33:46;5.00;99.90
28767;DHT22;15921;52.034;20.650;2023-01-24T10:36:30;4.80;99.90
28767;DHT22;15921;52.034;20.650;2023-01-24T10:38:59;4.60;99.90
28767;DHT22;15921;52.034;20.650;2023-01-24T10:41:29;4.50;99.90
28767;DHT22;15921;52.034;20.650;2023-01-24T10:44:03;4.40;99.90
28767;DHT22;15921;52.034;20.650;2023-01-24T10:49:24;4.30;99.90
28767;DHT22;15921;52.034;20.650;2023-01-24T10:54:45;4.40;99.90
28767;DHT22;15921;52.034;20.650;2023-01-24T11:00:19;4.60;99.90
28767;DHT22;15921;52.034;20.650;2023-01-24T11:02:57;4.60;99.90
28767;DHT22;15921;52.034;20.650;2023-01-24T11:05:25;4.50;99.90
28767;DHT22;15921;52.034;20.650;2023-01-24T11:08:00;4.40;99.90
28767;DHT22;15921;52.034;20.650;2023-01-24T11:10:37;4.50;99.90
28767;DHT22;15921;52.034;20.650;2023-01-24T11:13:28;4.50;99.90
28767;DHT22;15921;52.034;20.650;2023-01-24T11:16:05;4.50;99.90
28767;DHT22;15921;52.034;20.650;2023-01-24T11:18:32;4.50;99.90
28767;DHT22;15921;52.034;20.650;2023-01-24T11:21:19;4.50;99.90
28767;DHT22;15921;52.034;20.650;2023-01-24T11:23:45;4.60;99.90
28767;DHT22;15921;52.034;20.650;2023-01-24T11:26:29;4.60;99.90
28767;DHT22;15921;52.034;20.650;2023-01-24T11:28:58;4.60;99.90
28767;DHT22;15921;52.034;20.650;2023-01-24T11:31:36;4.60;99.90
28767;DHT22;15921;52.034;20.650;2023-01-24T11:53:07;5.00;99.90
28767;DHT22;15921;52.034;20.650;2023-01-24T11:56:08;5.00;99.90
28767;DHT22;15921;52.034;20.650;2023-01-24T11:58:52;5.00;99.90
28767;DHT22;15921;52.034;20.650;2023-01-24T12:01:54;5.10;99.90
28767;DHT22;15921;52.034;20.650;2023-01-24T12:10:41;5.10;99.90
28767;DHT22;15921;52.034;20.650;2023-01-24T12:22:00;4.60;99.90
28767;DHT22;15921;52.034;20.650;2023-01-24T12:24:30;4.70;99.90
28767;DHT22;15921;52.034;20.650;2023-01-24T12:27:01;4.80;99.90
28767;DHT22;15921;52.034;20.650;2023-01-24T12:29:28;4.90;99.90
28767;DHT22;15921;52.034;20.650;2023-01-24T12:32:20;5.00;99.90
28767;DHT22;15921;52.034;20.650;2023-01-24T12:34:55;5.00;99.90
28767;DHT22;15921;52.034;20.650;2023-01-24T12:42:46;5.10;99.90
28767;DHT22;15921;52.034;20.650;2023-01-24T12:45:20;5.20;99.90
28767;DHT22;15921;52.034;20.650;2023-01-24T12:48:22;5.20;99.90
28767;DHT22;15921;52.034;20.650;2023-01-24T12:56:25;5.30;99.90
28767;DHT22;15921;52.034;20.650;2023-01-24T12:58:52;5.30;99.90
28767;DHT22;15921;52.034;20.650;2023-01-24T13:01:30;5.40;99.90
28767;DHT22;15921;52.034;20.650;2023-01-24T13:04:31;5.40;99.90
28767;DHT22;15921;52.034;20.650;2023-01-24T13:12:43;5.40;99.90
28767;DHT22;15921;52.034;20.650;2023-01-24T13:18:42;5.20;99.90
28767;DHT22;15921;52.034;20.650;2023-01-24T13:23:57;5.20;99.90
28767;DHT22;15921;52.034;20.650;2023-01-24T13:29:25;5.10;99.90
28767;DHT22;15921;52.034;20.650;2023-01-24T13:34:28;5.10;99.90
28767;DHT22;15921;52.034;20.650;2023-01-24T13:36:54;5.00;99.90
28767;DHT22;15921;52.034;20.650;2023-01-24T13:39:33;5.00;99.90
28767;DHT22;15921;52.034;20.650;2023-01-24T13:42:04;4.90;99.90
28767;DHT22;15921;52.034;20.650;2023-01-24T13:44:31;4.80;99.90
28767;DHT22;15921;52.034;20.650;2023-01-24T13:50:02;4.60;99.90
28767;DHT22;15921;52.034;20.650;2023-01-24T13:52:37;4.60;99.90
28767;DHT22;15921;52.034;20.650;2023-01-24T14:00:47;4.60;99.90
28767;DHT22;15921;52.034;20.650;2023-01-24T14:05:51;4.60;99.90
28767;DHT22;15921;52.034;20.650;2023-01-24T14:10:50;4.60;99.90
28767;DHT22;15921;52.034;20.650;2023-01-24T14:16:59;4.60;99.90
28767;DHT22;15921;52.034;20.650;2023-01-24T14:22:01;4.50;99.90
28767;DHT22;15921;52.034;20.650;2023-01-24T14:24:31;4.50;99.90
28767;DHT22;15921;52.034;20.650;2023-01-24T14:27:19;4.50;99.90
28767;DHT22;15921;52.034;20.650;2023-01-24T14:29:54;4.60;99.90
28767;DHT22;15921;52.034;20.650;2023-01-24T14:32:33;4.60;99.90
28767;DHT22;15921;52.034;20.650;2023-01-24T14:37:46;4.70;99.90
28767;DHT22;15921;52.034;20.650;2023-01-24T14:40:23;4.70;99.90
28767;DHT22;15921;52.034;20.650;2023-01-24T14:42:51;4.70;99.90
28767;DHT22;15921;52.034;20.650;2023-01-24T14:45:26;4.70;99.90
28767;DHT22;15921;52.034;20.650;2023-01-24T14:47:53;4.70;99.90
28767;DHT22;15921;52.034;20.650;2023-01-24T14:50:29;4.60;99.90
28767;DHT22;15921;52.034;20.650;2023-01-24T14:52:59;4.60;99.90
28767;DHT22;15921;52.034;20.650;2023-01-24T14:57:56;4.50;99.90
28767;DHT22;15921;52.034;20.650;2023-01-24T15:00:37;4.40;99.90
28767;DHT22;15921;52.034;20.650;2023-01-24T15:03:03;4.40;99.90
28767;DHT22;15921;52.034;20.650;2023-01-24T15:05:36;4.30;99.90
28767;DHT22;15921;52.034;20.650;2023-01-24T15:08:05;4.40;99.90
28767;DHT22;15921;52.034;20.650;2023-01-24T15:10:34;4.50;99.90
28767;DHT22;15921;52.034;20.650;2023-01-24T15:13:07;4.50;99.90
28767;DHT22;15921;52.034;20.650;2023-01-24T15:15:35;4.40;99.90
28767;DHT22;15921;52.034;20.650;2023-01-24T15:18:06;4.40;99.90
28767;DHT22;15921;52.034;20.650;2023-01-24T15:20:33;4.30;99.90
28767;DHT22;15921;52.034;20.650;2023-01-24T15:23:00;4.20;99.90
28767;DHT22;15921;52.034;20.650;2023-01-24T15:25:33;4.20;99.90
28767;DHT22;15921;52.034;20.650;2023-01-24T15:30:53;4.10;99.90
28767;DHT22;15921;52.034;20.650;2023-01-24T15:33:19;4.10;99.90
28767;DHT22;15921;52.034;20.650;2023-01-24T15:35:47;4.10;99.90
28767;DHT22;15921;52.034;20.650;2023-01-24T15:38:16;4.10;99.90
28767;DHT22;15921;52.034;20.650;2023-01-24T15:41:34;4.10;99.90
28767;DHT22;15921;52.034;20.650;2023-01-24T15:44:04;4.20;99.90
28767;DHT22;15921;52.034;20.650;2023-01-24T15:46:33;4.20;99.90
28767;DHT22;15921;52.034;20.650;2023-01-24T15:49:25;4.20;99.90
28767;DHT22;15921;52.034;20.650;2023-01-24T15:54:35;4.20;99.90
28767;DHT22;15921;52.034;20.650;2023-01-24T15:57:03;4.10;99.90
28767;DHT22;15921;52.034;20.650;2023-01-24T15:59:30;4.10;99.90
28767;DHT22;15921;52.034;20.650;2023-01-24T16:01:56;4.20;99.90
28767;DHT22;15921;52.034;20.650;2023-01-24T16:04:23;4.20;99.90
28767;DHT22;15921;52.034;20.650;2023-01-24T16:06:49;4.20;99.90
28767;DHT22;15921;52.034;20.650;2023-01-24T16:09:15;4.30;99.90
28767;DHT22;15921;52.034;20.650;2023-01-24T16:11:43;4.30;99.90
28767;DHT22;15921;52.034;20.650;2023-01-24T16:14:17;4.40;99.90
28767;DHT22;15921;52.034;20.650;2023-01-24T16:16:44;4.40;99.90
28767;DHT22;15921;52.034;20.650;2023-01-24T16:19:18;4.40;99.90
28767;DHT22;15921;52.034;20.650;2023-01-24T16:21:45;4.40;99.90
28767;DHT22;15921;52.034;20.650;2023-01-24T16:24:11;4.50;99.90
28767;DHT22;15921;52.034;20.650;2023-01-24T16:26:39;4.40;99.90
28767;DHT22;15921;52.034;20.650;2023-01-24T16:29:21;4.50;99.90
28767;DHT22;15921;52.034;20.650;2023-01-24T16:31:47;4.50;99.90
28767;DHT22;15921;52.034;20.650;2023-01-24T16:34:13;4.50;99.90
28767;DHT22;15921;52.034;20.650;2023-01-24T16:36:39;4.50;99.90
28767;DHT22;15921;52.034;20.650;2023-01-24T16:39:06;4.40;99.90
28767;DHT22;15921;52.034;20.650;2023-01-24T16:41:32;4.40;99.90
28767;DHT22;15921;52.034;20.650;2023-01-24T16:43:58;4.40;99.90
28767;DHT22;15921;52.034;20.650;2023-01-24T16:46:24;4.30;99.90
28767;DHT22;15921;52.034;20.650;2023-01-24T16:48:51;4.30;99.90
28767;DHT22;15921;52.034;20.650;2023-01-24T16:51:18;4.20;99.90
28767;DHT22;15921;52.034;20.650;2023-01-24T16:53:44;4.20;99.90
28767;DHT22;15921;52.034;20.650;2023-01-24T16:56:09;4.20;99.90
28767;DHT22;15921;52.034;20.650;2023-01-24T16:58:35;4.20;99.90
28767;DHT22;15921;52.034;20.650;2023-01-24T17:01:09;4.10;99.90
28767;DHT22;15921;52.034;20.650;2023-01-24T17:03:35;4.10;99.90
28767;DHT22;15921;52.034;20.650;2023-01-24T17:06:07;4.00;99.90
28767;DHT22;15921;52.034;20.650;2023-01-24T17:08:34;4.00;99.90
28767;DHT22;15921;52.034;20.650;2023-01-24T17:11:11;4.00;99.90
28767;DHT22;15921;52.034;20.650;2023-01-24T17:13:37;3.90;99.90
28767;DHT22;15921;52.034;20.650;2023-01-24T17:16:07;3.90;99.90
28767;DHT22;15921;52.034;20.650;2023-01-24T17:18:34;3.90;99.90
28767;DHT22;15921;52.034;20.650;2023-01-24T17:21:05;3.90;99.90
28767;DHT22;15921;52.034;20.650;2023-01-24T17:23:32;3.80;99.90
28767;DHT22;15921;52.034;20.650;2023-01-24T17:26:02;3.80;99.90
28767;DHT22;15921;52.034;20.650;2023-01-24T17:28:28;3.80;99.90
28767;DHT22;15921;52.034;20.650;2023-01-24T17:30:54;3.90;99.90
28767;DHT22;15921;52.034;20.650;2023-01-24T17:33:20;3.90;99.90
28767;DHT22;15921;52.034;20.650;2023-01-24T17:35:45;3.90;99.90
28767;DHT22;15921;52.034;20.650;2023-01-24T17:38:11;3.90;99.90
28767;DHT22;15921;52.034;20.650;2023-01-24T17:40:37;3.90;99.90
28767;DHT22;15921;52.034;20.650;2023-01-24T17:43:03;3.90;99.90
28767;DHT22;15921;52.034;20.650;2023-01-24T17:45:29;3.80;99.90
28767;DHT22;15921;52.034;20.650;2023-01-24T17:47:55;3.80;99.90
28767;DHT22;15921;52.034;20.650;2023-01-24T17:50:21;3.80;99.90
28767;DHT22;15921;52.034;20.650;2023-01-24T17:52:48;3.80;99.90
28767;DHT22;15921;52.034;20.650;2023-01-24T17:55:14;3.80;99.90
28767;DHT22;15921;52.034;20.650;2023-01-24T17:57:41;3.80;99.90
28767;DHT22;15921;52.034;20.650;2023-01-24T18:00:08;3.80;99.90
28767;DHT22;15921;52.034;20.650;2023-01-24T18:02:34;3.70;99.90
28767;DHT22;15921;52.034;20.650;2023-01-24T18:04:59;3.70;99.90